createdAt,value
2018-09-03T00:00:26.598Z,9.70
2018-09-03T00:01:06.347Z,8.60
2018-09-03T00:01:46.496Z,9.93
2018-09-03T00:02:25.835Z,8.97
2018-09-03T00:03:04.411Z,9.83
2018-09-03T00:03:43.638Z,9.50
2018-09-03T00:04:23.223Z,8.57
2018-09-03T00:05:02.037Z,10.20
2018-09-03T00:05:40.733Z,9.40
2018-09-03T00:06:20.115Z,9.40
2018-09-03T00:06:58.976Z,9.57
2018-09-03T00:07:37.704Z,9.80
2018-09-03T00:08:18.265Z,8.83
2018-09-03T00:08:56.963Z,10.27
2018-09-03T00:09:40.076Z,9.00
2018-09-03T00:10:20.529Z,8.73
2018-09-03T00:10:59.270Z,8.80
2018-09-03T00:11:39.776Z,9.17
2018-09-03T00:12:19.166Z,8.57
2018-09-03T00:12:58.050Z,8.70
2018-09-03T00:13:36.843Z,9.50
2018-09-03T00:14:17.485Z,8.67
2018-09-03T00:14:56.539Z,9.23
2018-09-03T00:15:35.803Z,10.07
2018-09-03T00:16:14.469Z,8.77
2018-09-03T00:16:53.209Z,9.67
2018-09-03T00:17:32.850Z,9.87
2018-09-03T00:18:11.572Z,9.17
2018-09-03T00:18:50.768Z,9.27
2018-09-03T00:19:29.392Z,9.83
2018-09-03T00:20:08.214Z,9.23
2018-09-03T00:20:48.650Z,9.00
2018-09-03T00:21:29.763Z,8.00
2018-09-03T00:22:08.454Z,8.57
2018-09-03T00:22:47.529Z,7.77
2018-09-03T00:23:26.689Z,7.90
2018-09-03T00:24:05.667Z,6.80
2018-09-03T00:24:44.414Z,7.20
2018-09-03T00:25:24.510Z,7.60
2018-09-03T00:26:03.251Z,7.10
2018-09-03T00:26:42.339Z,7.60
2018-09-03T00:27:21.481Z,7.57
2018-09-03T00:28:42.985Z,6.80
2018-09-03T00:29:22.046Z,6.63
2018-09-03T00:30:00.982Z,6.07
2018-09-03T00:30:39.807Z,6.73
2018-09-03T00:31:23.434Z,6.80
2018-09-03T00:32:07.415Z,7.00
2018-09-03T00:32:50.456Z,7.03
2018-09-03T00:33:32.976Z,6.60
2018-09-03T00:34:15.631Z,7.13
2018-09-03T00:34:58.264Z,6.30
2018-09-03T00:35:40.989Z,7.17
2018-09-03T00:36:23.789Z,6.20
2018-09-03T00:37:06.775Z,6.77
2018-09-03T00:37:51.037Z,6.40
2018-09-03T00:38:34.722Z,6.87
2018-09-03T00:39:17.363Z,6.40
2018-09-03T00:39:59.985Z,6.60
2018-09-03T00:40:42.557Z,6.80
2018-09-03T00:41:25.053Z,6.20
2018-09-03T00:42:06.963Z,6.53
2018-09-03T00:42:49.347Z,6.13
2018-09-03T00:43:31.534Z,6.10
2018-09-03T00:44:13.701Z,6.00
2018-09-03T00:44:55.599Z,6.50
2018-09-03T00:45:37.734Z,5.33
2018-09-03T00:46:20.185Z,5.77
2018-09-03T00:46:59.786Z,6.70
2018-09-03T00:47:37.827Z,5.87
2018-09-03T00:48:16.660Z,6.92
2018-09-03T00:48:54.677Z,5.50
2018-09-03T00:49:33.500Z,6.50
2018-09-03T00:50:11.555Z,6.70
2018-09-03T00:50:49.625Z,6.27
2018-09-03T00:51:27.489Z,6.03
2018-09-03T00:52:05.369Z,5.57
2018-09-03T00:52:43.727Z,6.07
2018-09-03T00:53:21.736Z,6.43
2018-09-03T00:53:59.760Z,6.50
2018-09-03T00:54:38.897Z,6.93
2018-09-03T00:55:16.929Z,7.10
2018-09-03T00:55:54.938Z,6.50
2018-09-03T00:56:32.957Z,6.00
2018-09-03T00:57:11.112Z,6.33
2018-09-03T00:57:50.637Z,6.53
2018-09-03T00:58:29.049Z,5.80
2018-09-03T00:59:07.115Z,6.23
2018-09-03T00:59:45.388Z,6.60
2018-09-03T01:00:23.376Z,6.47
2018-09-03T01:01:01.367Z,6.10
2018-09-03T01:01:39.441Z,6.20
2018-09-03T01:02:17.385Z,6.10
2018-09-03T01:02:55.300Z,6.13
2018-09-03T01:03:33.315Z,6.60
2018-09-03T01:04:11.491Z,5.80
2018-09-03T01:04:49.444Z,5.30
2018-09-03T01:05:27.408Z,6.43
2018-09-03T01:06:05.482Z,5.97
2018-09-03T01:06:43.445Z,6.20
2018-09-03T01:07:21.501Z,6.07
2018-09-03T01:07:59.548Z,5.93
2018-09-03T01:08:37.559Z,5.37
2018-09-03T01:09:15.639Z,7.30
2018-09-03T01:09:53.889Z,5.83
2018-09-03T01:10:32.144Z,6.47
2018-09-03T01:11:10.718Z,5.80
2018-09-03T01:11:48.940Z,6.77
2018-09-03T01:12:27.004Z,6.10
2018-09-03T01:13:05.037Z,5.90
2018-09-03T01:13:44.796Z,5.97
2018-09-03T01:14:22.715Z,5.70
2018-09-03T01:15:00.776Z,6.03
2018-09-03T01:15:38.764Z,6.20
2018-09-03T01:16:17.297Z,6.45
2018-09-03T01:16:55.211Z,6.90
2018-09-03T01:17:33.196Z,6.83
2018-09-03T01:18:11.240Z,6.70
2018-09-03T01:18:49.633Z,6.80
2018-09-03T01:19:27.701Z,7.07
2018-09-03T01:20:05.692Z,6.80
2018-09-03T01:20:43.779Z,6.90
2018-09-03T01:21:21.904Z,7.03
2018-09-03T01:21:59.972Z,7.03
2018-09-03T01:22:37.833Z,6.70
2018-09-03T01:23:15.691Z,6.20
2018-09-03T01:23:53.836Z,6.70
2018-09-03T01:24:31.828Z,6.70
2018-09-03T01:25:09.841Z,5.50
2018-09-03T01:25:47.867Z,6.10
2018-09-03T01:26:25.927Z,6.23
2018-09-03T01:27:03.784Z,5.87
2018-09-03T01:27:42.174Z,5.93
2018-09-03T01:28:20.401Z,6.60
2018-09-03T01:28:58.464Z,4.70
2018-09-03T01:29:36.466Z,5.33
2018-09-03T01:30:14.593Z,5.70
2018-09-03T01:30:52.616Z,5.50
2018-09-03T01:31:30.565Z,5.50
2018-09-03T01:32:10.397Z,5.20
2018-09-03T01:32:48.432Z,5.70
2018-09-03T01:33:26.427Z,6.53
2018-09-03T01:34:04.469Z,5.37
2018-09-03T01:34:42.505Z,5.60
2018-09-03T01:35:20.516Z,6.50
2018-09-03T01:35:58.548Z,6.50
2018-09-03T01:36:36.642Z,6.40
2018-09-03T01:37:14.663Z,6.23
2018-09-03T01:37:52.624Z,6.47
2018-09-03T01:38:30.580Z,6.90
2018-09-03T01:39:10.373Z,6.47
2018-09-03T01:39:48.379Z,6.90
2018-09-03T01:40:26.243Z,7.47
2018-09-03T01:41:04.244Z,5.50
2018-09-03T01:41:42.260Z,6.10
2018-09-03T01:42:21.493Z,5.67
2018-09-03T01:43:06.777Z,6.67
2018-09-03T01:43:45.077Z,6.80
2018-09-03T01:44:23.034Z,6.70
2018-09-03T01:45:01.168Z,6.70
2018-09-03T01:45:39.188Z,6.20
2018-09-03T01:46:17.219Z,6.60
2018-09-03T01:46:55.184Z,6.70
2018-09-03T01:47:33.241Z,7.70
2018-09-03T01:48:11.372Z,6.77
2018-09-03T01:48:49.449Z,6.73
2018-09-03T01:49:28.769Z,8.60
2018-09-03T01:50:06.678Z,6.77
2018-09-03T01:50:44.846Z,8.03
2018-09-03T01:51:22.744Z,7.83
2018-09-03T01:52:00.835Z,9.43
2018-09-03T01:52:38.812Z,9.67
2018-09-03T01:53:16.956Z,7.80
2018-09-03T01:53:54.887Z,8.20
2018-09-03T01:54:32.915Z,8.97
2018-09-03T01:55:10.951Z,9.90
2018-09-03T01:55:48.926Z,9.37
2018-09-03T01:56:26.949Z,10.97
2018-09-03T01:57:04.831Z,10.63
2018-09-03T01:57:42.705Z,9.90
2018-09-03T01:58:20.679Z,10.20
2018-09-03T01:58:58.720Z,11.63
2018-09-03T01:59:36.680Z,10.33
2018-09-03T02:00:15.510Z,11.20
2018-09-03T02:00:53.724Z,10.03
2018-09-03T02:01:31.913Z,9.57
2018-09-03T02:02:09.922Z,9.53
2018-09-03T02:02:47.934Z,9.37
2018-09-03T02:03:26.333Z,9.43
2018-09-03T02:04:04.267Z,9.43
2018-09-03T02:04:42.385Z,8.90
2018-09-03T02:05:20.349Z,10.30
2018-09-03T02:05:58.339Z,10.53
2018-09-03T02:06:36.274Z,9.87
2018-09-03T02:07:14.304Z,10.40
2018-09-03T02:07:52.662Z,9.80
2018-09-03T02:08:30.988Z,11.73
2018-09-03T02:09:13.637Z,11.83
2018-09-03T02:09:51.636Z,11.27
2018-09-03T02:10:29.733Z,10.93
2018-09-03T02:11:07.649Z,11.67
2018-09-03T02:11:46.585Z,11.07
2018-09-03T02:12:25.298Z,12.20
2018-09-03T02:13:03.842Z,12.77
2018-09-03T02:13:41.977Z,13.27
2018-09-03T02:14:19.995Z,11.70
2018-09-03T02:14:57.968Z,12.20
2018-09-03T02:15:36.171Z,11.60
2018-09-03T02:16:14.160Z,10.50
2018-09-03T02:16:52.787Z,10.97
2018-09-03T02:17:31.642Z,10.00
2018-09-03T02:18:09.592Z,10.53
2018-09-03T02:18:47.597Z,11.80
2018-09-03T02:19:27.195Z,11.90
2018-09-03T02:20:05.058Z,11.53
2018-09-03T02:20:43.269Z,12.10
2018-09-03T02:21:21.437Z,13.07
2018-09-03T02:21:59.352Z,11.27
2018-09-03T02:22:37.380Z,12.07
2018-09-03T02:23:15.469Z,10.40
2018-09-03T02:23:53.522Z,10.97
2018-09-03T02:24:31.546Z,9.73
2018-09-03T02:25:23.530Z,10.27
2018-09-03T02:26:01.529Z,9.67
2018-09-03T02:26:39.704Z,10.07
2018-09-03T02:27:17.903Z,10.10
2018-09-03T02:27:55.895Z,9.33
2018-09-03T02:28:33.892Z,10.43
2018-09-03T02:29:11.829Z,10.77
2018-09-03T02:29:49.885Z,11.20
2018-09-03T02:30:28.136Z,11.30
2018-09-03T02:31:06.111Z,11.03
2018-09-03T02:31:44.094Z,11.60
2018-09-03T02:32:22.168Z,9.97
2018-09-03T02:33:00.125Z,12.03
2018-09-03T02:33:38.868Z,10.33
2018-09-03T02:34:16.863Z,11.07
2018-09-03T02:34:55.135Z,11.50
2018-09-03T02:35:33.131Z,11.00
2018-09-03T02:36:11.053Z,11.27
2018-09-03T02:36:49.275Z,11.03
2018-09-03T02:37:27.197Z,10.87
2018-09-03T02:38:05.293Z,11.20
2018-09-03T02:38:43.643Z,12.27
2018-09-03T02:39:21.922Z,10.40
2018-09-03T02:40:00.042Z,10.33
2018-09-03T02:40:38.042Z,11.60
2018-09-03T02:41:16.045Z,10.17
2018-09-03T02:41:54.511Z,10.53
2018-09-03T02:42:32.566Z,11.23
2018-09-03T02:43:10.749Z,10.37
2018-09-03T02:43:48.727Z,10.70
2018-09-03T02:44:27.748Z,11.10
2018-09-03T02:45:05.900Z,10.50
2018-09-03T02:45:44.799Z,11.10
2018-09-03T02:46:22.909Z,10.20
2018-09-03T02:47:00.857Z,10.60
2018-09-03T02:47:38.829Z,9.80
2018-09-03T02:48:17.268Z,11.35
2018-09-03T02:48:55.228Z,11.63
2018-09-03T02:49:33.307Z,11.63
2018-09-03T02:50:11.405Z,12.20
2018-09-03T02:50:49.407Z,10.80
2018-09-03T02:51:27.369Z,11.50
2018-09-03T02:52:06.238Z,11.90
2018-09-03T02:52:45.350Z,10.67
2018-09-03T02:53:23.303Z,10.90
2018-09-03T02:54:01.292Z,10.97
2018-09-03T02:54:41.054Z,11.30
2018-09-03T02:55:19.036Z,11.07
2018-09-03T02:55:57.044Z,11.33
2018-09-03T02:56:35.047Z,12.00
2018-09-03T02:57:13.136Z,11.50
2018-09-03T02:57:51.237Z,10.50
2018-09-03T02:58:29.325Z,11.57
2018-09-03T02:59:07.319Z,10.73
2018-09-03T02:59:45.725Z,11.40
2018-09-03T03:00:27.736Z,10.90
2018-09-03T03:01:05.811Z,11.63
2018-09-03T03:01:43.850Z,11.40
2018-09-03T03:02:35.701Z,10.73
2018-09-03T03:03:27.452Z,11.00
2018-09-03T03:04:05.405Z,9.60
2018-09-03T03:04:43.374Z,10.03
2018-09-03T03:05:21.365Z,10.10
2018-09-03T03:05:59.694Z,10.47
2018-09-03T03:06:38.621Z,9.33
2018-09-03T03:07:16.801Z,9.33
2018-09-03T03:07:55.328Z,8.60
2018-09-03T03:08:33.271Z,9.97
2018-09-03T03:09:12.414Z,9.33
2018-09-03T03:09:50.564Z,8.60
2018-09-03T03:10:28.929Z,8.37
2018-09-03T03:11:07.218Z,8.30
2018-09-03T03:11:45.322Z,8.90
2018-09-03T03:12:26.889Z,9.70
2018-09-03T03:13:04.832Z,10.10
2018-09-03T03:13:43.772Z,9.77
2018-09-03T03:14:21.803Z,9.50
2018-09-03T03:15:01.437Z,10.07
2018-09-03T03:15:39.635Z,9.77
2018-09-03T03:16:17.788Z,9.53
2018-09-03T03:16:55.769Z,10.03
2018-09-03T03:17:33.729Z,8.97
2018-09-03T03:18:11.770Z,8.83
2018-09-03T03:18:50.056Z,8.60
2018-09-03T03:19:28.126Z,7.73
2018-09-03T03:20:06.483Z,9.00
2018-09-03T03:20:44.486Z,8.03
2018-09-03T03:21:22.513Z,8.50
2018-09-03T03:22:00.550Z,9.10
2018-09-03T03:22:38.554Z,7.63
2018-09-03T03:23:16.857Z,8.60
2018-09-03T03:23:55.090Z,8.47
2018-09-03T03:24:33.254Z,8.60
2018-09-03T03:25:11.361Z,8.47
2018-09-03T03:25:49.328Z,8.30
2018-09-03T03:26:28.187Z,8.50
2018-09-03T03:27:06.189Z,8.70
2018-09-03T03:27:44.201Z,8.73
2018-09-03T03:28:22.262Z,9.60
2018-09-03T03:29:00.463Z,9.77
2018-09-03T03:29:38.471Z,10.70
2018-09-03T03:30:17.023Z,10.58
2018-09-03T03:30:55.048Z,10.37
2018-09-03T03:31:33.047Z,10.90
2018-09-03T03:32:11.119Z,9.80
2018-09-03T03:32:51.829Z,10.70
2018-09-03T03:33:29.731Z,11.50
2018-09-03T03:34:07.772Z,11.47
2018-09-03T03:34:45.981Z,11.00
2018-09-03T03:35:24.068Z,11.73
2018-09-03T03:36:02.046Z,12.20
2018-09-03T03:36:40.175Z,10.83
2018-09-03T03:37:19.269Z,12.17
2018-09-03T03:37:57.199Z,11.30
2018-09-03T03:38:35.240Z,10.90
2018-09-03T03:39:13.263Z,11.57
2018-09-03T03:39:51.333Z,11.13
2018-09-03T03:40:29.496Z,10.83
2018-09-03T03:41:07.547Z,9.70
2018-09-03T03:41:45.644Z,11.73
2018-09-03T03:42:23.604Z,11.60
2018-09-03T03:43:01.492Z,10.60
2018-09-03T03:43:39.632Z,10.47
2018-09-03T03:44:17.613Z,10.77
2018-09-03T03:44:55.565Z,11.60
2018-09-03T03:45:33.542Z,10.23
2018-09-03T03:46:11.675Z,10.90
2018-09-03T03:46:49.698Z,11.20
2018-09-03T03:47:27.762Z,11.60
2018-09-03T03:48:05.724Z,10.33
2018-09-03T03:48:44.080Z,11.17
2018-09-03T03:49:22.287Z,10.83
2018-09-03T03:50:00.585Z,10.40
2018-09-03T03:50:38.572Z,9.87
2018-09-03T03:51:16.561Z,10.33
2018-09-03T03:51:54.581Z,10.00
2018-09-03T03:52:32.618Z,10.30
2018-09-03T03:53:10.596Z,10.17
2018-09-03T03:53:48.776Z,9.90
2018-09-03T03:54:26.879Z,10.03
2018-09-03T03:55:05.682Z,11.17
2018-09-03T03:55:43.759Z,10.30
2018-09-03T03:56:21.881Z,10.23
2018-09-03T03:56:59.986Z,10.87
2018-09-03T03:57:38.499Z,9.90
2018-09-03T03:58:17.204Z,9.78
2018-09-03T03:58:55.395Z,9.10
2018-09-03T03:59:33.624Z,10.37
2018-09-03T04:00:12.290Z,8.90
2018-09-03T04:00:50.589Z,9.33
2018-09-03T04:01:28.572Z,9.93
2018-09-03T04:02:06.673Z,9.67
2018-09-03T04:02:44.724Z,9.50
2018-09-03T04:03:22.729Z,8.30
2018-09-03T04:04:00.973Z,8.27
2018-09-03T04:04:39.026Z,8.50
2018-09-03T04:05:17.352Z,8.03
2018-09-03T04:05:55.503Z,8.80
2018-09-03T04:06:33.636Z,8.77
2018-09-03T04:07:11.879Z,9.13
2018-09-03T04:07:49.999Z,8.13
2018-09-03T04:08:28.061Z,8.80
2018-09-03T04:09:07.009Z,8.40
2018-09-03T04:09:45.013Z,9.20
2018-09-03T04:10:23.274Z,8.90
2018-09-03T04:11:01.261Z,9.53
2018-09-03T04:11:39.696Z,8.30
2018-09-03T04:12:17.734Z,6.70
2018-09-03T04:13:00.502Z,7.57
2018-09-03T04:13:38.693Z,9.40
2018-09-03T04:14:16.960Z,8.43
2018-09-03T04:14:54.979Z,8.27
2018-09-03T04:15:33.193Z,9.40
2018-09-03T04:16:11.200Z,8.63
2018-09-03T04:16:49.148Z,9.30
2018-09-03T04:17:27.559Z,7.80
2018-09-03T04:18:06.346Z,8.53
2018-09-03T04:18:44.471Z,8.53
2018-09-03T04:19:22.543Z,7.23
2018-09-03T04:20:05.837Z,8.77
2018-09-03T04:20:44.879Z,7.40
2018-09-03T04:21:22.906Z,8.47
2018-09-03T04:22:01.179Z,7.90
2018-09-03T04:22:40.322Z,8.03
2018-09-03T04:23:18.512Z,7.47
2018-09-03T04:23:56.536Z,7.80
2018-09-03T04:24:34.904Z,7.97
2018-09-03T04:25:13.155Z,7.93
2018-09-03T04:25:51.194Z,7.70
2018-09-03T04:26:29.261Z,8.80
2018-09-03T04:27:07.461Z,7.30
2018-09-03T04:27:45.460Z,9.13
2018-09-03T04:28:23.621Z,7.87
2018-09-03T04:29:01.815Z,7.90
2018-09-03T04:29:39.772Z,8.20
2018-09-03T04:30:18.842Z,9.07
2018-09-03T04:30:57.147Z,8.83
2018-09-03T04:31:35.408Z,8.37
2018-09-03T04:32:16.337Z,9.37
2018-09-03T04:32:54.537Z,8.70
2018-09-03T04:33:32.654Z,8.60
2018-09-03T04:34:10.688Z,8.23
2018-09-03T04:34:49.105Z,8.87
2018-09-03T04:35:27.128Z,8.30
2018-09-03T04:36:06.357Z,8.87
2018-09-03T04:36:44.557Z,9.10
2018-09-03T04:37:22.604Z,10.00
2018-09-03T04:38:00.631Z,10.07
2018-09-03T04:38:38.717Z,9.80
2018-09-03T04:39:16.860Z,10.40
2018-09-03T04:39:55.063Z,9.60
2018-09-03T04:40:33.290Z,9.90
2018-09-03T04:41:11.311Z,9.80
2018-09-03T04:41:49.389Z,10.77
2018-09-03T04:42:27.530Z,9.33
2018-09-03T04:43:05.505Z,10.30
2018-09-03T04:43:43.435Z,10.90
2018-09-03T04:44:21.372Z,11.97
2018-09-03T04:44:59.361Z,11.63
2018-09-03T04:45:37.466Z,13.20
2018-09-03T04:49:32.363Z,10.33
2018-09-03T04:50:10.347Z,12.00
2018-09-03T04:50:48.341Z,12.33
2018-09-03T04:51:26.406Z,12.13
2018-09-03T04:52:04.437Z,11.50
2018-09-03T04:52:42.594Z,11.90
2018-09-03T04:53:20.701Z,11.40
2018-09-03T04:53:58.729Z,11.80
2018-09-03T04:54:37.080Z,12.00
2018-09-03T04:55:15.385Z,11.30
2018-09-03T04:55:53.604Z,12.00
2018-09-03T04:56:31.631Z,11.70
2018-09-03T04:57:09.712Z,11.80
2018-09-03T04:57:48.501Z,12.00
2018-09-03T04:58:26.658Z,11.53
2018-09-03T04:59:04.685Z,10.90
2018-09-03T04:59:42.884Z,11.97
2018-09-03T05:00:20.966Z,11.30
2018-09-03T05:00:59.073Z,8.60
2018-09-03T05:01:37.267Z,9.20
2018-09-03T05:02:15.200Z,10.53
2018-09-03T05:02:54.273Z,9.40
2018-09-03T05:03:32.292Z,10.60
2018-09-03T05:04:10.203Z,10.40
2018-09-03T05:04:49.406Z,9.90
2018-09-03T05:05:27.827Z,10.70
2018-09-03T05:06:05.981Z,9.93
2018-09-03T05:06:44.153Z,11.50
2018-09-03T05:07:22.238Z,9.57
2018-09-03T05:08:00.217Z,9.13
2018-09-03T05:08:38.191Z,7.70
2018-09-03T05:09:16.117Z,9.00
2018-09-03T05:10:24.029Z,9.03
2018-09-03T05:11:02.128Z,8.10
2018-09-03T05:11:40.324Z,6.20
2018-09-03T05:12:18.458Z,6.80
2018-09-03T05:12:56.636Z,5.97
2018-09-03T05:13:34.700Z,5.90
2018-09-03T05:14:12.785Z,6.87
2018-09-03T05:14:50.868Z,7.13
2018-09-03T05:15:28.981Z,6.83
2018-09-03T05:16:07.398Z,6.07
2018-09-03T05:16:45.460Z,5.67
2018-09-03T05:17:23.585Z,6.20
2018-09-03T05:18:01.846Z,6.40
2018-09-03T05:18:39.869Z,6.60
2018-09-03T05:19:17.771Z,7.70
2018-09-03T05:19:55.852Z,6.63
2018-09-03T05:20:34.348Z,7.10
2018-09-03T05:21:12.513Z,7.17
2018-09-03T05:21:50.580Z,6.23
2018-09-03T05:22:28.681Z,7.57
2018-09-03T05:23:48.815Z,6.10
2018-09-03T05:24:26.887Z,7.37
2018-09-03T05:25:05.320Z,6.97
2018-09-03T05:25:43.233Z,7.47
2018-09-03T05:26:21.532Z,6.90
2018-09-03T05:26:59.583Z,6.27
2018-09-03T05:27:37.536Z,7.63
2018-09-03T05:28:16.611Z,7.40
2018-09-03T05:28:54.525Z,7.20
2018-09-03T05:29:32.617Z,7.20
2018-09-03T05:30:11.674Z,6.70
2018-09-03T05:30:50.367Z,7.00
2018-09-03T05:31:28.479Z,7.40
2018-09-03T05:32:06.571Z,6.83
2018-09-03T05:32:44.588Z,7.17
2018-09-03T05:33:22.571Z,8.13
2018-09-03T05:34:00.859Z,8.30
2018-09-03T05:34:38.961Z,7.90
2018-09-03T05:35:17.181Z,7.70
2018-09-03T05:35:55.255Z,6.97
2018-09-03T05:36:33.360Z,7.53
2018-09-03T05:37:11.348Z,8.53
2018-09-03T05:37:49.374Z,8.30
2018-09-03T05:38:27.661Z,8.20
2018-09-03T05:39:06.549Z,8.60
2018-09-03T05:39:44.602Z,9.13
2018-09-03T05:40:29.496Z,8.63
2018-09-03T05:41:07.453Z,9.40
2018-09-03T05:41:45.412Z,9.20
2018-09-03T05:42:23.472Z,8.63
2018-09-03T05:43:01.481Z,7.90
2018-09-03T05:43:39.623Z,7.93
2018-09-03T05:44:17.845Z,8.53
2018-09-03T05:44:55.925Z,8.70
2018-09-03T05:45:33.859Z,9.53
2018-09-03T05:46:11.941Z,8.13
2018-09-03T05:46:50.223Z,9.10
2018-09-03T05:47:28.213Z,8.90
2018-09-03T05:48:06.164Z,8.20
2018-09-03T05:48:44.223Z,8.30
2018-09-03T05:49:22.510Z,8.33
2018-09-03T05:50:00.639Z,9.00
2018-09-03T05:50:38.656Z,9.77
2018-09-03T05:51:17.770Z,8.30
2018-09-03T05:51:55.691Z,9.63
2018-09-03T05:52:33.799Z,8.50
2018-09-03T05:53:11.780Z,9.43
2018-09-03T05:53:49.762Z,9.20
2018-09-03T05:54:27.800Z,8.57
2018-09-03T05:55:05.885Z,8.57
2018-09-03T05:55:43.924Z,8.43
2018-09-03T05:56:21.912Z,8.80
2018-09-03T05:56:59.884Z,8.83
2018-09-03T05:57:38.761Z,9.63
2018-09-03T05:58:17.219Z,9.30
2018-09-03T05:58:55.180Z,10.07
2018-09-03T05:59:33.211Z,10.47
2018-09-03T06:00:13.364Z,8.77
2018-09-03T06:00:51.336Z,9.17
2018-09-03T06:01:29.429Z,8.50
2018-09-03T06:02:08.662Z,10.07
2018-09-03T06:02:46.628Z,9.30
2018-09-03T06:03:24.753Z,8.60
2018-09-03T06:04:02.948Z,9.63
2018-09-03T06:04:41.050Z,8.87
2018-09-03T06:05:19.188Z,9.23
2018-09-03T06:05:57.243Z,9.60
2018-09-03T06:06:35.251Z,8.57
2018-09-03T06:07:13.285Z,9.57
2018-09-03T06:07:51.316Z,9.00
2018-09-03T06:08:29.338Z,9.47
2018-09-03T06:09:07.737Z,10.87
2018-09-03T06:09:45.763Z,10.07
2018-09-03T06:10:23.815Z,9.47
2018-09-03T06:11:02.067Z,8.80
2018-09-03T06:11:40.086Z,9.40
2018-09-03T06:12:18.305Z,8.97
2018-09-03T06:12:56.320Z,10.10
2018-09-03T06:13:34.808Z,10.10
2018-09-03T06:14:13.043Z,8.60
2018-09-03T06:14:51.077Z,9.10
2018-09-03T06:15:29.246Z,8.57
2018-09-03T06:16:07.370Z,8.57
2018-09-03T06:16:45.382Z,8.90
2018-09-03T06:17:23.486Z,8.77
2018-09-03T06:18:01.830Z,9.53
2018-09-03T06:18:39.760Z,8.50
2018-09-03T06:19:17.918Z,8.10
2018-09-03T06:19:55.836Z,9.13
2018-09-03T06:20:33.959Z,8.90
2018-09-03T06:21:12.234Z,8.70
2018-09-03T06:21:50.308Z,9.53
2018-09-03T06:22:28.459Z,9.03
2018-09-03T06:23:06.467Z,9.00
2018-09-03T06:23:44.478Z,9.23
2018-09-03T06:24:22.430Z,9.57
2018-09-03T06:25:00.536Z,9.20
2018-09-03T06:25:38.611Z,9.23
2018-09-03T06:26:16.587Z,9.47
2018-09-03T06:26:54.602Z,9.13
2018-09-03T06:27:32.617Z,8.83
2018-09-03T06:28:10.589Z,9.50
2018-09-03T06:28:48.622Z,8.87
2018-09-03T06:29:26.769Z,8.30
2018-09-03T06:30:04.786Z,8.90
2018-09-03T06:30:42.790Z,10.27
2018-09-03T06:31:20.885Z,9.20
2018-09-03T06:31:58.989Z,7.87
2018-09-03T06:32:37.052Z,9.10
2018-09-03T06:33:16.051Z,9.40
2018-09-03T06:33:55.030Z,9.60
2018-09-03T06:34:33.060Z,8.87
2018-09-03T06:35:11.187Z,10.00
2018-09-03T06:35:49.108Z,9.57
2018-09-03T06:36:27.132Z,8.50
2018-09-03T06:37:05.108Z,8.60
2018-09-03T06:37:43.071Z,9.27
2018-09-03T06:38:21.180Z,8.37
2018-09-03T06:38:59.343Z,10.43
2018-09-03T06:39:37.325Z,9.80
2018-09-03T06:40:15.307Z,8.60
2018-09-03T06:40:53.316Z,10.40
2018-09-03T06:41:31.407Z,10.90
2018-09-03T06:42:10.561Z,10.90
2018-09-03T06:42:48.585Z,10.93
2018-09-03T06:43:26.600Z,11.97
2018-09-03T06:44:04.570Z,11.20
2018-09-03T06:44:42.723Z,10.70
2018-09-03T06:45:20.681Z,10.67
2018-09-03T06:45:59.496Z,10.80
2018-09-03T06:46:37.462Z,11.63
2018-09-03T06:47:16.093Z,11.40
2018-09-03T06:47:54.069Z,10.83
2018-09-03T06:48:32.035Z,11.07
2018-09-03T06:49:09.942Z,11.00
2018-09-03T06:49:48.014Z,9.80
2018-09-03T06:50:26.565Z,11.00
2018-09-03T06:51:04.460Z,11.17
2018-09-03T06:51:42.729Z,10.20
2018-09-03T06:52:25.227Z,9.07
2018-09-03T06:53:03.217Z,9.67
2018-09-03T06:53:41.306Z,9.63
2018-09-03T06:54:19.419Z,9.40
2018-09-03T06:54:57.398Z,9.53
2018-09-03T06:55:35.292Z,9.40
2018-09-03T06:56:13.233Z,9.37
2018-09-03T06:56:51.338Z,8.70
2018-09-03T06:57:29.319Z,8.80
2018-09-03T06:58:07.412Z,9.10
2018-09-03T06:58:45.594Z,9.13
2018-09-03T06:59:25.000Z,8.83
2018-09-03T07:00:02.955Z,9.10
2018-09-03T07:00:41.010Z,8.03
2018-09-03T07:01:19.008Z,8.20
2018-09-03T07:01:57.058Z,8.13
2018-09-03T07:02:35.008Z,8.43
2018-09-03T07:03:13.062Z,8.83
2018-09-03T07:03:51.134Z,8.77
2018-09-03T07:04:29.255Z,9.20
2018-09-03T07:05:07.343Z,9.13
2018-09-03T07:05:45.206Z,8.97
2018-09-03T07:06:23.344Z,8.90
2018-09-03T07:07:01.251Z,7.70
2018-09-03T07:07:39.171Z,8.77
2018-09-03T07:08:17.904Z,8.60
2018-09-03T07:08:56.064Z,8.30
2018-09-03T07:09:34.013Z,7.90
2018-09-03T07:10:12.591Z,8.10
2018-09-03T07:10:50.579Z,8.20
2018-09-03T07:11:28.592Z,8.53
2018-09-03T07:12:06.693Z,8.83
2018-09-03T07:12:44.927Z,6.90
2018-09-03T07:13:22.965Z,7.23
2018-09-03T07:14:01.118Z,7.80
2018-09-03T07:14:52.708Z,7.77
2018-09-03T07:15:30.604Z,8.30
2018-09-03T07:16:08.609Z,7.60
2018-09-03T07:16:46.630Z,7.37
2018-09-03T07:17:24.732Z,7.60
2018-09-03T07:18:03.206Z,6.77
2018-09-03T07:18:41.293Z,7.67
2018-09-03T07:19:19.412Z,7.17
2018-09-03T07:19:57.376Z,7.33
2018-09-03T07:20:35.485Z,7.60
2018-09-03T07:21:13.435Z,8.57
2018-09-03T07:21:51.395Z,8.43
2018-09-03T07:22:29.687Z,9.20
2018-09-03T07:23:07.805Z,9.73
2018-09-03T07:23:45.767Z,8.70
2018-09-03T07:24:23.803Z,8.27
2018-09-03T07:25:02.266Z,8.70
2018-09-03T07:25:40.225Z,8.30
2018-09-03T07:26:18.351Z,8.87
2018-09-03T07:26:56.591Z,8.27
2018-09-03T07:27:34.582Z,8.57
2018-09-03T07:28:12.588Z,8.13
2018-09-03T07:28:50.595Z,8.00
2018-09-03T07:29:29.601Z,8.40
2018-09-03T07:30:07.637Z,8.23
2018-09-03T07:30:46.042Z,8.30
2018-09-03T07:31:24.280Z,8.60
2018-09-03T07:32:02.188Z,8.97
2018-09-03T07:32:40.132Z,8.30
2018-09-03T07:33:18.151Z,8.40
2018-09-03T07:33:56.178Z,9.23
2018-09-03T07:34:34.204Z,8.23
2018-09-03T07:35:12.240Z,8.00
2018-09-03T07:35:50.273Z,8.20
2018-09-03T07:36:28.258Z,7.43
2018-09-03T07:37:06.255Z,7.90
2018-09-03T07:37:44.219Z,7.93
2018-09-03T07:38:22.242Z,7.10
2018-09-03T07:39:00.340Z,7.63
2018-09-03T07:39:38.288Z,7.70
2018-09-03T07:40:16.603Z,8.15
2018-09-03T07:40:54.652Z,7.23
2018-09-03T07:41:32.748Z,7.47
2018-09-03T07:42:10.772Z,7.30
2018-09-03T07:42:48.773Z,8.10
2018-09-03T07:43:26.865Z,7.43
2018-09-03T07:44:04.839Z,7.57
2018-09-03T07:44:48.513Z,7.00
2018-09-03T07:45:26.520Z,6.47
2018-09-03T07:46:04.519Z,7.10
2018-09-03T07:46:42.503Z,6.83
2018-09-03T07:47:20.377Z,7.60
2018-09-03T07:47:58.290Z,7.63
2018-09-03T07:48:36.300Z,7.10
2018-09-03T07:49:16.040Z,7.50
2018-09-03T07:49:54.042Z,7.57
2018-09-03T07:50:32.168Z,7.80
2018-09-03T07:51:10.434Z,6.93
2018-09-03T07:51:48.537Z,6.50
2018-09-03T07:52:26.740Z,6.53
2018-09-03T07:53:04.799Z,6.67
2018-09-03T07:53:43.051Z,6.77
2018-09-03T07:54:20.978Z,6.27
2018-09-03T07:54:58.951Z,5.87
2018-09-03T07:55:37.027Z,6.40
2018-09-03T07:56:15.115Z,6.07
2018-09-03T07:56:53.168Z,6.13
2018-09-03T07:57:32.427Z,6.63
2018-09-03T07:58:11.511Z,6.30
2018-09-03T07:58:49.765Z,6.77
2018-09-03T07:59:27.893Z,6.30
2018-09-03T08:00:06.295Z,6.37
2018-09-03T08:00:44.321Z,7.27
2018-09-03T08:01:22.323Z,6.37
2018-09-03T08:02:01.361Z,6.70
2018-09-03T08:02:39.316Z,6.63
2018-09-03T08:03:17.367Z,7.30
2018-09-03T08:03:55.316Z,6.53
2018-09-03T08:04:33.281Z,6.60
2018-09-03T08:05:11.544Z,6.50
2018-09-03T08:05:49.536Z,6.50
2018-09-03T08:06:27.522Z,7.27
2018-09-03T08:07:05.716Z,6.00
2018-09-03T08:07:43.838Z,6.00
2018-09-03T08:08:21.849Z,6.13
2018-09-03T08:08:59.944Z,7.53
2018-09-03T08:09:38.205Z,6.57
2018-09-03T08:10:16.240Z,5.73
2018-09-03T08:10:54.153Z,7.07
2018-09-03T08:11:32.152Z,6.40
2018-09-03T08:12:10.276Z,6.30
2018-09-03T08:12:48.344Z,6.37
2018-09-03T08:13:30.437Z,6.23
2018-09-03T08:14:08.516Z,5.63
2018-09-03T08:14:46.464Z,6.60
2018-09-03T08:15:24.556Z,5.93
2018-09-03T08:16:02.538Z,6.20
2018-09-03T08:16:40.944Z,7.53
2018-09-03T08:17:18.934Z,6.23
2018-09-03T08:17:56.900Z,5.77
2018-09-03T08:18:34.943Z,6.37
2018-09-03T08:19:12.856Z,6.87
2018-09-03T08:19:52.127Z,6.80
2018-09-03T08:20:30.117Z,6.47
2018-09-03T08:21:08.274Z,5.50
2018-09-03T08:21:46.306Z,5.97
2018-09-03T08:22:25.024Z,6.03
2018-09-03T08:23:03.109Z,6.00
2018-09-03T08:23:41.129Z,5.27
2018-09-03T08:24:19.122Z,5.27
2018-09-03T08:24:57.062Z,6.57
2018-09-03T08:25:34.997Z,7.03
2018-09-03T08:26:12.887Z,6.07
2018-09-03T08:26:50.966Z,5.87
2018-09-03T08:27:31.808Z,5.80
2018-09-03T08:28:09.843Z,6.27
2018-09-03T08:28:48.749Z,6.13
2018-09-03T08:29:27.504Z,6.23
2018-09-03T08:30:05.556Z,7.23
2018-09-03T08:30:43.502Z,6.30
2018-09-03T08:31:21.472Z,5.83
2018-09-03T08:31:59.540Z,6.10
2018-09-03T08:32:37.564Z,5.23
2018-09-03T08:33:15.574Z,6.00